Time;durP1;ratioP1;P1;durP2;ratioP2;P2;SDS_P1;SDS_P2;PMS_P1;PMS_P2;Temp;Humidity;BMP_temperature;BMP_pressure;BME280_temperature;BME280_humidity;BME280_pressure;Samples;Min_cycle;Max_cycle;Signal;HPM_P1;HPM_P2
2022/06/15 00:00:33;;;;;;;5.37;3.87;;;;;;;;;;4990409;28;20177;-75
2022/06/15 00:02:58;;;;;;;6.13;3.60;;;;;;;;;;5005578;28;20191;-75
2022/06/15 00:05:24;;;;;;;4.80;3.93;;;;;;;;;;4984930;28;20187;-75
2022/06/15 00:07:49;;;;;;;3.40;3.10;;;;;;;;;;4992576;28;20245;-75
2022/06/15 00:10:14;;;;;;;3.57;3.27;;;;;;;;;;4988948;28;20187;-75
2022/06/15 00:12:39;;;;;;;5.53;3.60;;;;;;;;;;4988590;28;20187;-75
2022/06/15 00:15:06;;;;;;;6.00;4.00;;;;;;;;;;5005161;28;20254;-74
2022/06/15 00:17:31;;;;;;;4.33;3.30;;;;;;;;;;4994940;28;20177;-75
2022/06/15 00:19:56;;;;;;;5.00;3.63;;;;;;;;;;4992524;28;20248;-75
2022/06/15 00:22:21;;;;;;;3.63;3.10;;;;;;;;;;5008948;28;20169;-75
2022/06/15 00:24:47;;;;;;;4.37;3.13;;;;;;;;;;4987206;28;20190;-75
2022/06/15 00:27:12;;;;;;;4.00;3.40;;;;;;;;;;4990047;28;20299;-75
2022/06/15 00:29:38;;;;;;;3.80;3.20;;;;;;;;;;5010643;28;20179;-75
2022/06/15 00:32:04;;;;;;;8.17;4.30;;;;;;;;;;5012142;28;20175;-75
2022/06/15 00:34:29;;;;;;;5.67;3.27;;;;;;;;;;4991133;28;20207;-75
2022/06/15 00:36:54;;;;;;;3.60;3.30;;;;;;;;;;4990887;28;20183;-75
2022/06/15 00:39:20;;;;;;;6.13;3.60;;;;;;;;;;5009298;28;20201;-74
2022/06/15 00:41:45;;;;;;;3.97;3.23;;;;;;;;;;4994197;28;20175;-75
2022/06/15 00:44:19;;;;;;;4.67;3.50;;;;;;;;;;4994334;28;20190;-74
2022/06/15 00:46:56;;;;;;;3.73;3.43;;;;;;;;;;4987208;28;20186;-74
2022/06/15 00:49:26;;;;;;;3.90;3.13;;;;;;;;;;4993144;28;20202;-74
2022/06/15 00:51:54;;;;;;;4.37;3.40;;;;;;;;;;4996336;28;20187;-75
2022/06/15 00:54:19;;;;;;;3.93;3.20;;;;;;;;;;5019703;28;20234;-74
2022/06/15 00:56:45;;;;;;;3.17;2.77;;;;;;;;;;5004370;28;20189;-75
2022/06/15 00:59:24;;;;;;;5.43;3.50;;;;;;;;;;5005842;28;20266;-75
2022/06/15 01:01:50;;;;;;;3.50;3.20;;;;;;;;;;5013370;28;20212;-74
2022/06/15 01:04:17;;;;;;;9.33;3.23;;;;;;;;;;5012666;28;20605;-74
2022/06/15 01:06:48;;;;;;;5.07;3.30;;;;;;;;;;5030075;28;20193;-74
2022/06/15 01:09:24;;;;;;;3.50;2.77;;;;;;;;;;5017001;28;20186;-75
2022/06/15 01:11:49;;;;;;;3.87;3.43;;;;;;;;;;5025482;28;20216;-75
2022/06/15 01:14:27;;;;;;;4.03;3.20;;;;;;;;;;5009296;28;20208;-75
2022/06/15 01:17:11;;;;;;;3.30;2.60;;;;;;;;;;5026643;28;20216;-75
2022/06/15 01:19:45;;;;;;;3.50;3.20;;;;;;;;;;5027268;28;20182;-75
2022/06/15 01:22:32;;;;;;;4.10;3.70;;;;;;;;;;5003452;28;20264;-75
2022/06/15 01:25:09;;;;;;;4.30;2.73;;;;;;;;;;5010950;28;20185;-75
2022/06/15 01:27:53;;;;;;;3.60;3.13;;;;;;;;;;5027472;28;20272;-75
2022/06/15 01:30:27;;;;;;;4.73;3.40;;;;;;;;;;5005668;28;20192;-74
2022/06/15 01:33:12;;;;;;;5.67;3.30;;;;;;;;;;5032447;28;20178;-75
2022/06/15 01:35:38;;;;;;;5.90;3.23;;;;;;;;;;5005699;28;20208;-74
2022/06/15 01:38:19;;;;;;;3.83;2.80;;;;;;;;;;5009708;28;20173;-74
2022/06/15 01:40:48;;;;;;;3.53;2.90;;;;;;;;;;5023150;28;20185;-74
2022/06/15 01:43:17;;;;;;;5.40;3.87;;;;;;;;;;5028052;28;20269;-74
2022/06/15 01:45:44;;;;;;;5.20;3.53;;;;;;;;;;5009136;28;20218;-74
2022/06/15 01:48:11;;;;;;;5.13;3.77;;;;;;;;;;5029934;28;20252;-74
2022/06/15 01:50:44;;;;;;;4.70;3.57;;;;;;;;;;5012277;28;20204;-74
2022/06/15 01:53:16;;;;;;;3.73;2.97;;;;;;;;;;5019089;28;20333;-74
2022/06/15 01:55:51;;;;;;;3.57;3.23;;;;;;;;;;5006471;28;20232;-74
2022/06/15 01:58:17;;;;;;;4.00;3.10;;;;;;;;;;5015170;28;20188;-74
2022/06/15 02:00:46;;;;;;;4.43;3.30;;;;;;;;;;5008421;28;20178;-74
2022/06/15 02:03:14;;;;;;;3.80;3.00;;;;;;;;;;5013894;28;20620;-74
2022/06/15 02:05:39;;;;;;;3.90;3.20;;;;;;;;;;5012916;28;20197;-74
2022/06/15 02:08:17;;;;;;;4.33;2.83;;;;;;;;;;5013391;28;20263;-74
2022/06/15 02:10:50;;;;;;;6.33;2.87;;;;;;;;;;5024261;28;20187;-74
2022/06/15 02:13:35;;;;;;;5.07;3.40;;;;;;;;;;5032532;28;20185;-74
2022/06/15 02:16:04;;;;;;;4.73;3.30;;;;;;;;;;5011719;28;20208;-75
2022/06/15 02:18:32;;;;;;;5.33;3.17;;;;;;;;;;5017030;28;20213;-74
2022/06/15 02:21:00;;;;;;;5.90;3.40;;;;;;;;;;5027728;28;20286;-74
2022/06/15 02:23:26;;;;;;;5.77;3.17;;;;;;;;;;5017367;28;20187;-74
2022/06/15 02:25:53;;;;;;;5.20;3.00;;;;;;;;;;5013652;28;20181;-74
2022/06/15 02:28:20;;;;;;;3.53;2.70;;;;;;;;;;5011119;28;20181;-74
2022/06/15 02:30:45;;;;;;;3.83;2.93;;;;;;;;;;5031090;28;20189;-74
2022/06/15 02:33:23;;;;;;;3.20;2.90;;;;;;;;;;5016334;28;20262;-74
2022/06/15 02:35:48;;;;;;;4.53;3.33;;;;;;;;;;5015505;28;20231;-74
2022/06/15 02:38:14;;;;;;;5.00;3.03;;;;;;;;;;5031347;28;20187;-74
2022/06/15 02:40:39;;;;;;;3.60;2.93;;;;;;;;;;5040246;28;20179;-74
2022/06/15 02:43:04;;;;;;;4.00;2.93;;;;;;;;;;5021441;28;20168;-74
2022/06/15 02:45:34;;;;;;;4.43;2.83;;;;;;;;;;5022592;28;20283;-74
2022/06/15 02:47:59;;;;;;;3.87;2.97;;;;;;;;;;5019194;28;20177;-74
2022/06/15 02:50:27;;;;;;;6.43;3.30;;;;;;;;;;5030182;28;20203;-74
2022/06/15 02:52:55;;;;;;;3.40;3.10;;;;;;;;;;5008476;28;20180;-74
2022/06/15 02:55:21;;;;;;;3.50;3.17;;;;;;;;;;5030009;28;20282;-74
2022/06/15 02:57:48;;;;;;;3.60;3.30;;;;;;;;;;5017291;28;20254;-74
2022/06/15 03:00:15;;;;;;;6.57;3.10;;;;;;;;;;5014079;28;20188;-74
2022/06/15 03:02:41;;;;;;;3.80;3.40;;;;;;;;;;5027825;28;20183;-74
2022/06/15 03:05:06;;;;;;;3.83;3.10;;;;;;;;;;5015069;28;20184;-74
2022/06/15 03:07:31;;;;;;;3.90;3.40;;;;;;;;;;5027957;28;20172;-74
2022/06/15 03:09:57;;;;;;;5.33;3.50;;;;;;;;;;5025357;28;20247;-74
2022/06/15 03:12:22;;;;;;;4.70;3.13;;;;;;;;;;5012356;28;20180;-74
2022/06/15 03:14:48;;;;;;;5.93;3.17;;;;;;;;;;5023643;28;20255;-74
2022/06/15 03:17:13;;;;;;;5.67;3.00;;;;;;;;;;5028895;28;20180;-74
2022/06/15 03:19:38;;;;;;;4.17;2.90;;;;;;;;;;5034875;28;20187;-74
2022/06/15 03:22:04;;;;;;;5.97;3.73;;;;;;;;;;5016156;28;20457;-74
2022/06/15 03:24:29;;;;;;;3.20;2.90;;;;;;;;;;5012029;28;20176;-74
2022/06/15 03:26:54;;;;;;;3.70;3.03;;;;;;;;;;5011779;28;20176;-74
2022/06/15 03:29:20;;;;;;;3.97;3.17;;;;;;;;;;5008335;28;20189;-74
2022/06/15 03:31:45;;;;;;;3.73;2.90;;;;;;;;;;5035578;28;20171;-74
2022/06/15 03:34:10;;;;;;;3.43;3.13;;;;;;;;;;5030034;28;20194;-74
2022/06/15 03:36:35;;;;;;;3.83;3.00;;;;;;;;;;5013168;28;20182;-74
2022/06/15 03:39:00;;;;;;;4.00;3.13;;;;;;;;;;5010384;28;20243;-74
2022/06/15 03:41:26;;;;;;;7.30;3.23;;;;;;;;;;5028930;28;20190;-74
2022/06/15 03:43:51;;;;;;;3.93;3.20;;;;;;;;;;5011107;28;20209;-74
2022/06/15 03:46:16;;;;;;;3.70;3.37;;;;;;;;;;5022256;28;20190;-74
2022/06/15 03:48:41;;;;;;;4.03;3.17;;;;;;;;;;5014319;28;20175;-74
2022/06/15 03:51:07;;;;;;;5.80;3.17;;;;;;;;;;5016654;28;20195;-74
2022/06/15 03:53:32;;;;;;;3.83;2.83;;;;;;;;;;5019815;28;20295;-74
2022/06/15 03:55:57;;;;;;;5.23;2.90;;;;;;;;;;4998548;28;20184;-74
2022/06/15 03:58:22;;;;;;;3.63;3.33;;;;;;;;;;4990348;28;20279;-74
2022/06/15 04:00:48;;;;;;;4.27;3.07;;;;;;;;;;4991139;28;20244;-74
2022/06/15 04:03:13;;;;;;;4.00;3.00;;;;;;;;;;5003347;28;20183;-74
2022/06/15 04:05:40;;;;;;;4.47;4.07;;;;;;;;;;4994367;28;20179;-74
2022/06/15 04:10:50;;;;;;;4.50;3.10;;;;;;;;;;5012361;28;20190;-74
2022/06/15 04:13:15;;;;;;;4.53;2.93;;;;;;;;;;5010848;28;20194;-74
2022/06/15 04:15:41;;;;;;;6.57;3.33;;;;;;;;;;5013369;28;20203;-75
2022/06/15 04:18:07;;;;;;;3.60;2.90;;;;;;;;;;4996026;28;20183;-75
2022/06/15 04:20:32;;;;;;;3.23;3.03;;;;;;;;;;4991570;28;20180;-74
2022/06/15 04:23:01;;;;;;;3.37;2.93;;;;;;;;;;4990245;28;20171;-75
2022/06/15 04:25:29;;;;;;;4.27;3.07;;;;;;;;;;5012240;28;20203;-74
2022/06/15 04:27:55;;;;;;;3.20;2.90;;;;;;;;;;4988010;28;20182;-74
2022/06/15 04:30:20;;;;;;;3.50;3.20;;;;;;;;;;4988555;28;20183;-74
2022/06/15 04:32:46;;;;;;;3.37;3.07;;;;;;;;;;5012044;28;20274;-74
2022/06/15 04:35:11;;;;;;;4.77;3.47;;;;;;;;;;4991379;28;20212;-74
2022/06/15 04:37:37;;;;;;;6.53;3.30;;;;;;;;;;5011507;28;20187;-74
2022/06/15 04:40:03;;;;;;;5.27;3.30;;;;;;;;;;4989919;28;20183;-74
2022/06/15 04:42:28;;;;;;;4.97;3.10;;;;;;;;;;4994055;28;20236;-74
2022/06/15 04:44:54;;;;;;;4.60;3.03;;;;;;;;;;4987295;28;20182;-74
2022/06/15 04:47:20;;;;;;;4.57;3.07;;;;;;;;;;5009099;28;20199;-75
2022/06/15 04:49:45;;;;;;;4.93;3.20;;;;;;;;;;4995388;28;20205;-74
2022/06/15 04:52:10;;;;;;;4.27;2.83;;;;;;;;;;4985251;28;20217;-75
2022/06/15 04:54:35;;;;;;;3.83;2.63;;;;;;;;;;4993468;28;21548;-75
2022/06/15 04:57:01;;;;;;;3.10;2.77;;;;;;;;;;5009624;28;20184;-74
2022/06/15 04:59:26;;;;;;;4.83;2.93;;;;;;;;;;4983856;28;20188;-75
2022/06/15 05:01:51;;;;;;;3.67;3.37;;;;;;;;;;4997735;28;20606;-74
2022/06/15 05:04:18;;;;;;;4.13;3.20;;;;;;;;;;4988940;28;20189;-75
2022/06/15 05:06:43;;;;;;;4.87;2.97;;;;;;;;;;5007020;28;20205;-75
2022/06/15 05:09:12;;;;;;;3.10;2.80;;;;;;;;;;4998933;28;20179;-75
2022/06/15 05:11:37;;;;;;;4.93;2.83;;;;;;;;;;4988547;28;20249;-74
2022/06/15 05:14:03;;;;;;;3.30;3.00;;;;;;;;;;4991297;28;20503;-75
2022/06/15 05:16:30;;;;;;;5.00;2.70;;;;;;;;;;4990348;28;20224;-75
2022/06/15 05:18:55;;;;;;;2.83;2.60;;;;;;;;;;4991244;28;20186;-75
2022/06/15 05:21:21;;;;;;;3.10;2.90;;;;;;;;;;4998196;28;20174;-75
2022/06/15 05:23:46;;;;;;;5.17;3.10;;;;;;;;;;4978399;28;20189;-75
2022/06/15 05:26:11;;;;;;;3.30;3.00;;;;;;;;;;4996323;28;20188;-74
2022/06/15 05:28:38;;;;;;;5.13;3.00;;;;;;;;;;4986451;28;20175;-75
2022/06/15 05:31:04;;;;;;;3.43;2.80;;;;;;;;;;5009735;28;20174;-75
2022/06/15 05:33:29;;;;;;;3.60;2.97;;;;;;;;;;4986272;28;20179;-75
2022/06/15 05:36:00;;;;;;;2.87;2.40;;;;;;;;;;5002401;28;20211;-74
2022/06/15 05:38:25;;;;;;;3.20;2.80;;;;;;;;;;5006866;28;21929;-75
2022/06/15 05:40:50;;;;;;;4.83;2.87;;;;;;;;;;4988660;28;20325;-74
2022/06/15 05:43:15;;;;;;;4.20;2.90;;;;;;;;;;4986187;28;20294;-74
2022/06/15 05:45:41;;;;;;;4.13;3.00;;;;;;;;;;5007302;28;20187;-75
2022/06/15 05:48:06;;;;;;;3.43;2.63;;;;;;;;;;4996820;28;20182;-75
2022/06/15 05:50:31;;;;;;;3.37;2.80;;;;;;;;;;4994805;28;20207;-74
2022/06/15 05:52:59;;;;;;;4.53;2.50;;;;;;;;;;4993161;28;20192;-75
2022/06/15 05:55:25;;;;;;;3.00;2.70;;;;;;;;;;4987210;28;20293;-75
2022/06/15 05:57:50;;;;;;;3.07;2.63;;;;;;;;;;5005995;28;20179;-75
2022/06/15 06:00:18;;;;;;;4.40;3.13;;;;;;;;;;4982771;28;20189;-74
2022/06/15 06:02:43;;;;;;;4.20;3.00;;;;;;;;;;4987690;28;20266;-75
2022/06/15 06:05:08;;;;;;;3.37;2.90;;;;;;;;;;4993672;28;20203;-75
2022/06/15 06:07:34;;;;;;;3.67;2.77;;;;;;;;;;5001079;28;20239;-75
2022/06/15 06:09:59;;;;;;;2.90;2.63;;;;;;;;;;5009863;28;20180;-75
2022/06/15 06:12:24;;;;;;;3.10;2.77;;;;;;;;;;4992203;28;20188;-75
2022/06/15 06:14:51;;;;;;;6.20;3.57;;;;;;;;;;4988680;28;20203;-75
2022/06/15 06:17:16;;;;;;;4.07;2.97;;;;;;;;;;5010577;28;20340;-74
2022/06/15 06:19:41;;;;;;;4.83;3.53;;;;;;;;;;5012328;28;20177;-75
2022/06/15 06:22:07;;;;;;;2.93;2.47;;;;;;;;;;4994610;28;20197;-75
2022/06/15 06:24:32;;;;;;;3.23;2.67;;;;;;;;;;4991495;28;20188;-74
2022/06/15 06:26:58;;;;;;;2.60;2.40;;;;;;;;;;5001721;28;20174;-75
2022/06/15 06:29:23;;;;;;;4.87;2.90;;;;;;;;;;4987407;28;20275;-75
2022/06/15 06:31:49;;;;;;;3.67;2.90;;;;;;;;;;5009552;28;20178;-75
2022/06/15 06:34:14;;;;;;;4.93;3.03;;;;;;;;;;4985363;28;20198;-75
2022/06/15 06:36:40;;;;;;;2.80;2.60;;;;;;;;;;5002334;28;20256;-75
2022/06/15 06:39:09;;;;;;;3.37;3.03;;;;;;;;;;4983102;28;20170;-75
2022/06/15 06:41:35;;;;;;;3.17;2.80;;;;;;;;;;4991580;28;20186;-75
2022/06/15 06:44:03;;;;;;;3.57;2.70;;;;;;;;;;4986655;28;20221;-74
2022/06/15 06:46:28;;;;;;;5.43;3.03;;;;;;;;;;4988700;28;20264;-75
2022/06/15 06:48:53;;;;;;;5.17;2.83;;;;;;;;;;5004401;28;20331;-74
2022/06/15 06:51:18;;;;;;;2.87;2.10;;;;;;;;;;5005070;28;20190;-75
2022/06/15 06:53:43;;;;;;;3.20;2.23;;;;;;;;;;4997621;28;20232;-75
2022/06/15 06:56:09;;;;;;;3.40;2.40;;;;;;;;;;5004302;28;20242;-75
2022/06/15 06:58:35;;;;;;;3.13;2.60;;;;;;;;;;5010073;28;20194;-75
2022/06/15 07:01:00;;;;;;;3.03;2.80;;;;;;;;;;4992889;28;20395;-75
2022/06/15 07:03:26;;;;;;;2.80;2.50;;;;;;;;;;4988371;28;20188;-74
2022/06/15 07:05:51;;;;;;;3.50;2.80;;;;;;;;;;4988584;28;20190;-75
2022/06/15 07:08:16;;;;;;;3.47;3.17;;;;;;;;;;4985630;28;20176;-75
2022/06/15 07:10:42;;;;;;;3.13;2.83;;;;;;;;;;4986540;28;20186;-75
2022/06/15 07:13:07;;;;;;;3.43;3.10;;;;;;;;;;5006411;28;20194;-75
2022/06/15 07:15:32;;;;;;;3.37;3.07;;;;;;;;;;4996834;28;20206;-75
2022/06/15 07:17:58;;;;;;;4.97;3.50;;;;;;;;;;4982102;28;20179;-75
2022/06/15 07:20:24;;;;;;;3.43;3.13;;;;;;;;;;5010654;28;20483;-75
2022/06/15 07:22:49;;;;;;;3.53;2.80;;;;;;;;;;4988582;28;20181;-75
2022/06/15 07:25:14;;;;;;;3.27;3.03;;;;;;;;;;4992814;28;20199;-75
2022/06/15 07:27:40;;;;;;;6.10;3.13;;;;;;;;;;4987886;28;20186;-75
2022/06/15 07:30:07;;;;;;;3.93;3.63;;;;;;;;;;5005508;28;20289;-75
2022/06/15 07:32:33;;;;;;;4.20;3.50;;;;;;;;;;5005691;28;20231;-75
2022/06/15 07:34:58;;;;;;;4.17;3.33;;;;;;;;;;4987915;28;20202;-75
2022/06/15 07:37:23;;;;;;;2.67;2.47;;;;;;;;;;4990507;28;20182;-75
2022/06/15 07:39:48;;;;;;;2.53;2.33;;;;;;;;;;4999660;28;20182;-75
2022/06/15 07:42:14;;;;;;;4.10;2.63;;;;;;;;;;4990444;28;20270;-75
2022/06/15 07:44:39;;;;;;;3.23;2.60;;;;;;;;;;4987427;28;20195;-75
2022/06/15 07:49:57;;;;;;;2.83;2.33;;;;;;;;;;5010291;28;20209;-75
2022/06/15 07:52:33;;;;;;;3.07;2.77;;;;;;;;;;4987739;28;20283;-75
2022/06/15 07:54:58;;;;;;;3.37;3.00;;;;;;;;;;5006126;28;20225;-75
2022/06/15 07:57:23;;;;;;;2.80;2.50;;;;;;;;;;5026270;28;20223;-75
2022/06/15 07:59:49;;;;;;;3.00;2.80;;;;;;;;;;5009336;28;20183;-75
2022/06/15 08:02:14;;;;;;;3.90;2.80;;;;;;;;;;5032882;28;20178;-75
2022/06/15 08:04:39;;;;;;;3.07;2.73;;;;;;;;;;5009496;28;20302;-75
2022/06/15 08:07:07;;;;;;;3.10;2.70;;;;;;;;;;5011015;28;20239;-75
2022/06/15 08:09:32;;;;;;;6.67;2.93;;;;;;;;;;5030697;28;20187;-75
2022/06/15 08:12:14;;;;;;;3.63;2.60;;;;;;;;;;5031915;28;20178;-74
2022/06/15 08:14:45;;;;;;;3.47;2.92;;;;;;;;;;5013289;28;20338;-75
2022/06/15 08:17:16;;;;;;;5.33;2.70;;;;;;;;;;5003904;28;20193;-75
2022/06/15 08:19:44;;;;;;;4.18;2.95;;;;;;;;;;5033901;28;20170;-75
2022/06/15 08:22:09;;;;;;;4.53;2.53;;;;;;;;;;5008597;28;20202;-75
2022/06/15 08:24:35;;;;;;;2.75;2.55;;;;;;;;;;5023072;28;20190;-75
2022/06/15 08:27:00;;;;;;;6.00;3.33;;;;;;;;;;5013279;28;20183;-75
2022/06/15 08:29:26;;;;;;;3.10;2.78;;;;;;;;;;5006239;28;20190;-75
2022/06/15 08:31:56;;;;;;;3.22;2.88;;;;;;;;;;5011570;28;20271;-75
2022/06/15 08:34:22;;;;;;;5.10;3.35;;;;;;;;;;5011239;28;20203;-75
2022/06/15 08:36:47;;;;;;;4.72;3.40;;;;;;;;;;5021738;28;20175;-75
2022/06/15 08:39:12;;;;;;;3.50;2.92;;;;;;;;;;5011506;28;20265;-74
2022/06/15 08:41:37;;;;;;;3.33;2.55;;;;;;;;;;5028266;28;20186;-75
2022/06/15 08:44:02;;;;;;;4.65;2.75;;;;;;;;;;5011985;28;20185;-75
2022/06/15 08:46:39;;;;;;;3.00;2.45;;;;;;;;;;5016899;28;20182;-75
2022/06/15 08:49:05;;;;;;;3.92;2.90;;;;;;;;;;5030407;28;20183;-75
2022/06/15 08:51:36;;;;;;;4.68;2.83;;;;;;;;;;5003918;28;20179;-75
2022/06/15 08:54:18;;;;;;;3.83;3.30;;;;;;;;;;5019651;28;20257;-74
2022/06/15 08:56:50;;;;;;;3.35;3.05;;;;;;;;;;5010621;28;20181;-75
2022/06/15 09:01:48;;;;;;;3.75;2.97;;;;;;;;;;4987910;28;20219;-75
2022/06/15 09:04:20;;;;;;;2.85;2.60;;;;;;;;;;5004603;28;20416;-75
2022/06/15 09:06:52;;;;;;;3.35;2.80;;;;;;;;;;5004865;28;20234;-75
2022/06/15 09:09:20;;;;;;;2.97;2.78;;;;;;;;;;4968109;28;20187;-75
2022/06/15 09:11:48;;;;;;;3.15;2.90;;;;;;;;;;4984698;28;20205;-75
2022/06/15 09:14:43;;;;;;;3.60;3.30;;;;;;;;;;5006978;28;20299;-75
2022/06/15 09:17:11;;;;;;;3.35;3.08;;;;;;;;;;4957486;28;20185;-75
2022/06/15 09:19:39;;;;;;;4.03;3.05;;;;;;;;;;4971555;28;20176;-75
2022/06/15 09:22:10;;;;;;;4.00;2.88;;;;;;;;;;4971284;28;20274;-74
2022/06/15 09:24:46;;;;;;;2.88;2.67;;;;;;;;;;4989648;28;20184;-75
2022/06/15 09:27:14;;;;;;;3.35;3.05;;;;;;;;;;4971863;28;20184;-75
2022/06/15 09:29:51;;;;;;;3.33;2.95;;;;;;;;;;4989931;28;20212;-75
2022/06/15 09:32:22;;;;;;;5.30;2.92;;;;;;;;;;4965316;28;20183;-75
2022/06/15 09:34:54;;;;;;;2.95;2.72;;;;;;;;;;4976697;28;20214;-75
2022/06/15 09:37:21;;;;;;;2.90;2.60;;;;;;;;;;4991037;28;20195;-75
2022/06/15 09:39:47;;;;;;;3.22;2.90;;;;;;;;;;4976292;28;20244;-75
2022/06/15 09:42:12;;;;;;;3.53;2.80;;;;;;;;;;4974989;28;20267;-74
2022/06/15 09:44:47;;;;;;;4.03;3.40;;;;;;;;;;4972754;28;20185;-75
2022/06/15 09:47:18;;;;;;;3.70;2.80;;;;;;;;;;4998647;28;20278;-75
2022/06/15 09:50:02;;;;;;;3.13;2.83;;;;;;;;;;4990394;28;20199;-75
2022/06/15 09:52:30;;;;;;;2.58;2.38;;;;;;;;;;5018118;28;20237;-75
2022/06/15 09:55:02;;;;;;;6.78;3.60;;;;;;;;;;4997409;28;20205;-75
2022/06/15 09:57:27;;;;;;;3.72;3.08;;;;;;;;;;4992041;28;20442;-75
2022/06/15 09:59:52;;;;;;;4.15;3.50;;;;;;;;;;4996051;28;20298;-75
2022/06/15 10:02:24;;;;;;;3.92;3.60;;;;;;;;;;4989647;28;21138;-75
2022/06/15 10:04:49;;;;;;;4.10;3.72;;;;;;;;;;5000188;28;20196;-74
2022/06/15 10:07:29;;;;;;;4.72;3.28;;;;;;;;;;4990697;28;20176;-75
2022/06/15 10:09:56;;;;;;;3.83;3.30;;;;;;;;;;4983711;28;20211;-75
2022/06/15 10:15:18;;;;;;;7.70;3.75;;;;;;;;;;4988804;28;20219;-75
2022/06/15 10:17:45;;;;;;;5.15;3.25;;;;;;;;;;4971647;28;20185;-75
2022/06/15 10:20:22;;;;;;;10.90;3.97;;;;;;;;;;4980694;28;20191;-75
2022/06/15 10:22:51;;;;;;;4.75;3.65;;;;;;;;;;4967115;28;20180;-75
2022/06/15 10:25:18;;;;;;;9.57;3.92;;;;;;;;;;4979702;28;20188;-74
2022/06/15 10:27:43;;;;;;;3.58;3.10;;;;;;;;;;4977726;28;20180;-75
2022/06/15 10:30:11;;;;;;;3.72;3.20;;;;;;;;;;4976954;28;20178;-75
2022/06/15 10:32:58;;;;;;;6.28;3.30;;;;;;;;;;4992751;28;20180;-75
2022/06/15 10:35:24;;;;;;;3.65;3.33;;;;;;;;;;4995026;28;20211;-75
2022/06/15 10:37:51;;;;;;;3.95;3.53;;;;;;;;;;4994562;28;20169;-75
2022/06/15 10:40:30;;;;;;;4.20;3.85;;;;;;;;;;4967595;28;20177;-75
2022/06/15 10:42:59;;;;;;;4.03;3.58;;;;;;;;;;4975438;28;20172;-75
2022/06/15 10:45:29;;;;;;;3.80;3.40;;;;;;;;;;4975852;28;20190;-75
2022/06/15 10:48:21;;;;;;;4.07;3.75;;;;;;;;;;4974518;28;20207;-75
2022/06/15 10:50:51;;;;;;;3.85;3.47;;;;;;;;;;4974063;28;20259;-75
2022/06/15 10:53:43;;;;;;;6.43;3.60;;;;;;;;;;4968287;28;20316;-75
2022/06/15 11:02:30;;;;;;;3.92;3.53;;;;;;;;;;4962584;28;20192;-75
2022/06/15 11:04:56;;;;;;;3.55;3.30;;;;;;;;;;4974839;28;20200;-74
2022/06/15 11:07:21;;;;;;;4.03;3.63;;;;;;;;;;4968670;28;20200;-75
2022/06/15 11:09:55;;;;;;;3.70;3.40;;;;;;;;;;4973789;28;20232;-75
2022/06/15 11:12:21;;;;;;;6.78;3.92;;;;;;;;;;4974436;28;20226;-75
2022/06/15 11:14:51;;;;;;;5.22;3.47;;;;;;;;;;4977975;28;20240;-75
2022/06/15 11:20:33;;;;;;;4.65;3.60;;;;;;;;;;4991596;28;20253;-75
2022/06/15 11:23:21;;;;;;;4.05;3.75;;;;;;;;;;4978956;28;20179;-75
2022/06/15 11:25:50;;;;;;;4.13;3.42;;;;;;;;;;4989493;28;20168;-75
2022/06/15 11:28:20;;;;;;;4.63;3.45;;;;;;;;;;4972509;28;20187;-75
2022/06/15 11:30:49;;;;;;;3.90;3.33;;;;;;;;;;4976612;28;20211;-75
2022/06/15 11:33:22;;;;;;;3.70;3.40;;;;;;;;;;4973043;28;20176;-75
2022/06/15 11:35:54;;;;;;;4.00;3.60;;;;;;;;;;4998983;28;20214;-75
2022/06/15 11:38:40;;;;;;;6.45;3.63;;;;;;;;;;4964976;28;20180;-75
2022/06/15 11:41:05;;;;;;;4.80;3.53;;;;;;;;;;4974623;28;20214;-75
2022/06/15 11:43:33;;;;;;;5.20;3.25;;;;;;;;;;4968698;28;20172;-75
2022/06/15 11:46:20;;;;;;;4.63;3.60;;;;;;;;;;4971903;28;20184;-75
2022/06/15 11:49:04;;;;;;;3.72;3.42;;;;;;;;;;4978650;28;20182;-75
2022/06/15 11:51:48;;;;;;;5.40;3.78;;;;;;;;;;4997359;28;20183;-75
2022/06/15 11:54:16;;;;;;;6.95;4.03;;;;;;;;;;4972712;28;20258;-75
2022/06/15 11:57:02;;;;;;;3.92;3.63;;;;;;;;;;4967294;28;20173;-75
2022/06/15 11:59:47;;;;;;;7.05;4.00;;;;;;;;;;4971717;28;20251;-76
2022/06/15 12:02:22;;;;;;;3.95;3.58;;;;;;;;;;4985212;28;20188;-75
2022/06/15 12:04:52;;;;;;;3.72;3.42;;;;;;;;;;4995596;28;20208;-75
2022/06/15 12:07:27;;;;;;;6.38;3.65;;;;;;;;;;4994454;28;20210;-75
2022/06/15 12:10:04;;;;;;;9.75;3.60;;;;;;;;;;4997227;28;20181;-75
2022/06/15 12:12:40;;;;;;;4.45;3.70;;;;;;;;;;4996650;28;20183;-76
2022/06/15 12:15:14;;;;;;;5.10;4.20;;;;;;;;;;5002061;28;20195;-75
2022/06/15 12:17:45;;;;;;;4.25;3.60;;;;;;;;;;4990136;28;20181;-75
2022/06/15 12:20:20;;;;;;;4.95;3.90;;;;;;;;;;4992497;28;20176;-75
2022/06/15 12:23:04;;;;;;;3.70;3.40;;;;;;;;;;4989676;28;20185;-75
2022/06/15 12:25:48;;;;;;;4.18;3.78;;;;;;;;;;5006608;28;20267;-75
2022/06/15 12:28:25;;;;;;;4.00;3.60;;;;;;;;;;5004634;28;20205;-75
2022/06/15 12:30:52;;;;;;;5.25;3.67;;;;;;;;;;4992408;28;20179;-75
2022/06/15 12:33:20;;;;;;;4.35;3.95;;;;;;;;;;5009582;28;20186;-75
2022/06/15 12:35:50;;;;;;;5.28;3.60;;;;;;;;;;5003457;28;20235;-75
2022/06/15 12:38:21;;;;;;;8.25;4.20;;;;;;;;;;4988716;28;20179;-75
2022/06/15 12:40:49;;;;;;;4.40;4.00;;;;;;;;;;5009627;28;20248;-75
2022/06/15 12:43:33;;;;;;;5.18;3.70;;;;;;;;;;4988971;28;20206;-75
2022/06/15 12:46:16;;;;;;;4.53;3.53;;;;;;;;;;5002378;28;20235;-75
2022/06/15 12:48:51;;;;;;;4.18;3.65;;;;;;;;;;4995612;28;20179;-75
2022/06/15 12:51:16;;;;;;;5.55;3.92;;;;;;;;;;4992586;28;20203;-75
2022/06/15 12:54:05;;;;;;;4.37;3.67;;;;;;;;;;4990326;28;20186;-75
2022/06/15 12:56:33;;;;;;;7.35;3.97;;;;;;;;;;4991351;28;20863;-74
2022/06/15 12:59:04;;;;;;;3.78;3.47;;;;;;;;;;4988085;28;20188;-76
2022/06/15 13:01:37;;;;;;;4.50;3.45;;;;;;;;;;4986275;28;20231;-75
2022/06/15 13:04:03;;;;;;;4.80;3.85;;;;;;;;;;4996482;28;20176;-76
2022/06/15 13:06:33;;;;;;;4.90;4.47;;;;;;;;;;4991831;28;20182;-75
2022/06/15 13:09:04;;;;;;;4.15;3.80;;;;;;;;;;4986582;28;20179;-76
2022/06/15 13:11:29;;;;;;;4.28;3.60;;;;;;;;;;4993486;28;20171;-75
2022/06/15 13:13:55;;;;;;;4.75;4.05;;;;;;;;;;5009642;28;20167;-75
2022/06/15 13:16:35;;;;;;;5.40;3.55;;;;;;;;;;5011422;28;20229;-75
2022/06/15 13:19:01;;;;;;;9.60;3.78;;;;;;;;;;4988470;28;20268;-75
2022/06/15 13:21:27;;;;;;;4.22;3.75;;;;;;;;;;4997119;28;20270;-75
2022/06/15 13:24:02;;;;;;;3.47;3.17;;;;;;;;;;4987380;28;20183;-75
2022/06/15 13:26:36;;;;;;;4.05;3.47;;;;;;;;;;4992001;28;20175;-75
2022/06/15 13:29:02;;;;;;;4.88;3.65;;;;;;;;;;5004287;28;20178;-75
2022/06/15 13:31:40;;;;;;;3.92;3.38;;;;;;;;;;5010043;28;20184;-75
2022/06/15 13:34:06;;;;;;;3.78;3.47;;;;;;;;;;5001732;28;20183;-75
2022/06/15 13:36:31;;;;;;;3.75;3.20;;;;;;;;;;4995022;28;20186;-75
2022/06/15 13:38:57;;;;;;;3.88;3.40;;;;;;;;;;5009666;28;20327;-75
2022/06/15 13:41:25;;;;;;;3.70;3.20;;;;;;;;;;5004134;28;20249;-75
2022/06/15 13:43:51;;;;;;;4.10;3.17;;;;;;;;;;4990590;28;20175;-75
2022/06/15 13:46:22;;;;;;;4.80;3.70;;;;;;;;;;5006036;28;20187;-75
2022/06/15 13:48:49;;;;;;;3.85;3.55;;;;;;;;;;4988047;28;20274;-75
2022/06/15 13:51:27;;;;;;;3.95;3.38;;;;;;;;;;5012410;28;20297;-75
2022/06/15 13:53:59;;;;;;;5.00;3.15;;;;;;;;;;4989776;28;20190;-75
2022/06/15 13:56:36;;;;;;;3.53;2.83;;;;;;;;;;4992692;28;20288;-75
2022/06/15 13:59:02;;;;;;;3.22;3.03;;;;;;;;;;5004799;28;20183;-75
2022/06/15 14:01:39;;;;;;;3.97;3.00;;;;;;;;;;4983786;28;20220;-75
2022/06/15 14:04:13;;;;;;;6.82;3.08;;;;;;;;;;4966368;28;20434;-75
2022/06/15 14:06:58;;;;;;;5.20;2.47;;;;;;;;;;4988318;28;20183;-76
2022/06/15 14:09:48;;;;;;;3.50;2.63;;;;;;;;;;4969089;28;20184;-75
2022/06/15 14:12:13;;;;;;;3.60;3.30;;;;;;;;;;4972764;28;20242;-75
2022/06/15 14:14:57;;;;;;;2.35;2.15;;;;;;;;;;4989414;28;20200;-75
2022/06/15 14:17:51;;;;;;;3.97;2.67;;;;;;;;;;4989577;28;20304;-75
2022/06/15 14:20:21;;;;;;;3.10;2.38;;;;;;;;;;4901096;28;20210;-76
2022/06/15 14:22:52;;;;;;;2.92;2.30;;;;;;;;;;4972548;28;20180;-75
2022/06/15 14:25:18;;;;;;;3.10;2.40;;;;;;;;;;4975823;28;20187;-75
2022/06/15 14:27:49;;;;;;;2.20;2.10;;;;;;;;;;4970094;28;20180;-75
2022/06/15 14:30:26;;;;;;;2.55;2.35;;;;;;;;;;4980729;28;20193;-75
2022/06/15 14:33:02;;;;;;;3.92;3.08;;;;;;;;;;4989505;28;20194;-75
2022/06/15 14:35:28;;;;;;;3.03;2.58;;;;;;;;;;4986477;28;20196;-75
2022/06/15 14:37:54;;;;;;;2.17;2.05;;;;;;;;;;4974200;28;20231;-75
2022/06/15 14:40:31;;;;;;;1.88;1.77;;;;;;;;;;4993838;28;20236;-75
2022/06/15 14:42:57;;;;;;;2.65;2.20;;;;;;;;;;5006292;28;20180;-76
2022/06/15 14:45:28;;;;;;;2.22;2.05;;;;;;;;;;4971212;28;20254;-75
2022/06/15 14:47:55;;;;;;;5.03;2.10;;;;;;;;;;4974490;28;20239;-76
2022/06/15 14:50:21;;;;;;;4.78;2.10;;;;;;;;;;4971678;28;20203;-75
2022/06/15 14:52:46;;;;;;;2.38;2.17;;;;;;;;;;4990413;28;20191;-76
2022/06/15 14:55:20;;;;;;;4.10;2.42;;;;;;;;;;4991884;28;20254;-75
2022/06/15 14:57:45;;;;;;;2.40;2.20;;;;;;;;;;4977843;28;20172;-75
2022/06/15 15:00:23;;;;;;;2.65;2.45;;;;;;;;;;4974752;28;20431;-75
2022/06/15 15:02:50;;;;;;;4.47;2.78;;;;;;;;;;5007180;28;20183;-75
2022/06/15 15:05:17;;;;;;;3.17;2.10;;;;;;;;;;4991711;28;20262;-75
2022/06/15 15:10:29;;;;;;;2.42;2.22;;;;;;;;;;4993200;28;20187;-75
2022/06/15 15:13:12;;;;;;;6.90;2.97;;;;;;;;;;5007837;28;20252;-75
2022/06/15 15:15:45;;;;;;;2.33;2.13;;;;;;;;;;4988985;28;20235;-75
2022/06/15 15:18:19;;;;;;;2.63;2.40;;;;;;;;;;4972811;28;20267;-75